createdAt,value
2018-10-17T00:01:11.122Z,7.20
2018-10-17T00:06:15.858Z,7.20
2018-10-17T00:11:21.386Z,7.10
2018-10-17T00:16:25.591Z,7.00
2018-10-17T00:21:29.930Z,6.80
2018-10-17T00:26:35.230Z,6.80
2018-10-17T00:31:40.083Z,6.70
2018-10-17T00:36:44.501Z,6.70
2018-10-17T00:41:50.059Z,6.80
2018-10-17T00:46:54.268Z,6.80
2018-10-17T00:51:59.181Z,6.70
2018-10-17T00:57:03.588Z,6.70
2018-10-17T01:02:07.801Z,6.60
2018-10-17T01:07:12.423Z,6.50
2018-10-17T01:12:16.957Z,6.40
2018-10-17T01:17:22.775Z,6.30
2018-10-17T01:22:27.065Z,6.20
2018-10-17T01:27:32.264Z,6.10
2018-10-17T01:32:37.006Z,6.10
2018-10-17T01:37:41.641Z,6.30
2018-10-17T01:42:46.372Z,6.30
2018-10-17T01:47:51.562Z,6.20
2018-10-17T01:52:55.988Z,6.10
2018-10-17T01:58:00.227Z,6.00
2018-10-17T02:03:04.706Z,5.90
2018-10-17T02:08:09.253Z,5.90
2018-10-17T02:13:13.934Z,5.90
2018-10-17T02:18:18.327Z,5.90
2018-10-17T02:23:22.558Z,5.80
2018-10-17T02:28:27.909Z,5.70
2018-10-17T02:33:33.044Z,5.60
2018-10-17T02:38:37.340Z,5.50
2018-10-17T02:43:41.575Z,5.30
2018-10-17T02:48:46.638Z,5.30
2018-10-17T02:53:51.045Z,5.30
2018-10-17T02:58:55.903Z,5.30
2018-10-17T03:04:00.129Z,5.30
2018-10-17T03:09:06.689Z,5.30
2018-10-17T03:14:11.810Z,5.20
2018-10-17T03:19:16.192Z,5.20
2018-10-17T03:24:21.241Z,5.10
2018-10-17T03:29:26.078Z,5.10
2018-10-17T03:34:30.510Z,5.20
2018-10-17T03:39:35.078Z,5.10
2018-10-17T03:44:39.480Z,5.10
2018-10-17T03:49:44.257Z,5.00
2018-10-17T03:54:48.923Z,5.00
2018-10-17T03:59:53.186Z,5.00
2018-10-17T04:04:57.484Z,5.00
2018-10-17T04:10:02.857Z,5.00
2018-10-17T04:15:08.055Z,5.00
2018-10-17T04:20:12.662Z,5.10
2018-10-17T04:25:18.027Z,5.10
2018-10-17T04:30:23.381Z,5.10
2018-10-17T04:35:30.538Z,5.20
2018-10-17T04:40:35.046Z,5.10
2018-10-17T04:45:39.822Z,5.10
2018-10-17T04:50:44.763Z,5.00
2018-10-17T04:55:49.829Z,4.90
2018-10-17T05:00:54.499Z,4.80
2018-10-17T05:05:59.996Z,4.70
2018-10-17T05:11:05.720Z,4.60
2018-10-17T05:16:10.033Z,4.50
2018-10-17T05:21:14.940Z,4.50
2018-10-17T05:26:20.157Z,4.50
2018-10-17T05:31:28.665Z,4.40
2018-10-17T05:36:37.071Z,4.40
2018-10-17T05:41:45.925Z,4.40
2018-10-17T05:54:50.289Z,4.40
2018-10-17T05:59:55.538Z,4.30
2018-10-17T06:05:00.093Z,4.40
2018-10-17T06:10:04.570Z,4.50
2018-10-17T06:15:08.626Z,4.70
2018-10-17T06:20:13.289Z,4.90
2018-10-17T06:25:17.629Z,5.90
2018-10-17T06:30:21.899Z,8.30
2018-10-17T06:35:26.351Z,9.00
2018-10-17T06:40:30.477Z,10.50
2018-10-17T06:45:34.636Z,12.20
2018-10-17T06:50:39.055Z,13.20
2018-10-17T06:55:43.588Z,14.50
2018-10-17T07:00:47.915Z,15.30
2018-10-17T07:05:52.384Z,15.80
2018-10-17T07:10:56.501Z,16.60
2018-10-17T07:16:00.802Z,17.00
2018-10-17T07:21:05.795Z,17.90
2018-10-17T07:26:10.219Z,18.10
2018-10-17T07:31:14.765Z,17.50
2018-10-17T07:36:19.658Z,16.30
2018-10-17T07:41:23.963Z,16.90
2018-10-17T07:46:29.194Z,18.20
2018-10-17T07:51:33.366Z,20.60
2018-10-17T07:56:37.544Z,22.80
2018-10-17T08:01:42.216Z,23.80
2018-10-17T08:06:46.635Z,23.70
2018-10-17T08:11:51.077Z,24.60
2018-10-17T08:16:55.187Z,24.00
2018-10-17T08:21:59.256Z,23.90
2018-10-17T08:27:03.406Z,23.80
2018-10-17T08:32:08.668Z,24.40
2018-10-17T08:37:13.755Z,23.00
2018-10-17T08:42:17.813Z,22.70
2018-10-17T08:47:21.973Z,21.90
2018-10-17T08:52:26.170Z,22.60
2018-10-17T08:57:30.315Z,23.00
2018-10-17T09:02:34.760Z,21.90
2018-10-17T09:07:39.137Z,21.70
2018-10-17T09:12:43.687Z,22.00
2018-10-17T09:17:47.775Z,23.00
2018-10-17T09:22:51.833Z,24.60
2018-10-17T09:27:56.408Z,25.10
2018-10-17T09:33:00.634Z,26.00
2018-10-17T09:38:04.937Z,25.80
2018-10-17T09:43:09.327Z,24.40
2018-10-17T09:48:13.663Z,23.10
2018-10-17T09:53:17.989Z,22.10
2018-10-17T09:58:22.649Z,21.10
2018-10-17T10:03:26.938Z,20.10
2018-10-17T10:08:31.021Z,19.90
2018-10-17T10:13:35.189Z,19.40
2018-10-17T10:18:39.307Z,19.60
2018-10-17T10:23:44.589Z,19.70
2018-10-17T10:28:48.795Z,19.70
2018-10-17T10:33:53.051Z,19.80
2018-10-17T10:38:57.130Z,20.20
2018-10-17T10:44:01.257Z,20.60
2018-10-17T10:49:05.668Z,20.50
2018-10-17T10:54:09.892Z,20.90
2018-10-17T10:59:14.399Z,20.90
2018-10-17T11:04:18.773Z,21.00
2018-10-17T11:09:23.221Z,21.10
2018-10-17T11:14:27.422Z,21.30
2018-10-17T11:19:32.223Z,21.50
2018-10-17T11:24:36.862Z,21.50
2018-10-17T11:29:41.385Z,21.60
2018-10-17T11:34:45.785Z,21.60
2018-10-17T11:39:49.981Z,21.70
2018-10-17T11:44:54.108Z,22.00
2018-10-17T11:49:58.157Z,22.10
2018-10-17T11:55:03.016Z,22.30
2018-10-17T12:00:09.493Z,22.40
2018-10-17T12:05:15.961Z,22.40
2018-10-17T12:10:20.272Z,22.40
2018-10-17T12:15:24.346Z,22.40
2018-10-17T12:20:28.445Z,22.90
2018-10-17T12:25:32.823Z,22.90
2018-10-17T12:30:37.554Z,22.70
2018-10-17T12:35:42.041Z,22.60
2018-10-17T12:40:46.698Z,22.60
2018-10-17T12:45:50.934Z,22.40
2018-10-17T12:50:55.066Z,22.40
2018-10-17T12:55:59.830Z,22.40
2018-10-17T13:01:04.245Z,22.40
2018-10-17T13:06:09.114Z,22.40
2018-10-17T13:11:13.473Z,22.80
2018-10-17T13:16:17.512Z,23.00
2018-10-17T13:21:21.905Z,22.70
2018-10-17T13:26:26.175Z,22.60
2018-10-17T13:31:30.718Z,22.70
2018-10-17T13:36:35.202Z,22.60
2018-10-17T13:41:39.420Z,22.30
2018-10-17T13:46:43.653Z,22.00
2018-10-17T13:51:47.933Z,22.10
2018-10-17T13:56:52.352Z,22.40
2018-10-17T14:01:56.707Z,22.30
2018-10-17T14:07:01.284Z,22.00
2018-10-17T14:12:06.200Z,21.80
2018-10-17T14:17:10.350Z,21.60
2018-10-17T14:22:16.175Z,21.30
2018-10-17T14:27:20.954Z,21.20
2018-10-17T14:32:25.066Z,21.10
2018-10-17T14:37:29.424Z,20.90
2018-10-17T14:42:33.847Z,21.00
2018-10-17T14:47:38.879Z,21.10
2018-10-17T14:52:43.342Z,21.00
2018-10-17T14:57:48.024Z,21.00
2018-10-17T15:02:52.324Z,20.90
2018-10-17T15:07:56.683Z,20.70
2018-10-17T15:13:00.862Z,20.50
2018-10-17T15:18:05.017Z,20.30
2018-10-17T15:23:09.247Z,20.20
2018-10-17T15:28:13.480Z,20.00
2018-10-17T15:33:17.877Z,19.70
2018-10-17T15:38:23.669Z,19.40
2018-10-17T15:43:28.666Z,19.10
2018-10-17T15:48:34.002Z,18.70
2018-10-17T15:53:38.555Z,18.40
2018-10-17T15:58:43.006Z,18.10
2018-10-17T16:03:47.260Z,17.90
2018-10-17T16:08:51.873Z,17.80
2018-10-17T16:13:57.853Z,17.60
2018-10-17T16:19:02.827Z,17.40
2018-10-17T16:24:07.443Z,17.20
2018-10-17T16:29:12.613Z,16.80
2018-10-17T16:34:17.326Z,16.70
2018-10-17T16:39:21.663Z,16.40
2018-10-17T16:44:26.235Z,16.00
2018-10-17T16:49:30.532Z,15.50
2018-10-17T16:54:35.022Z,15.10
2018-10-17T16:59:39.939Z,14.70
2018-10-17T17:04:44.622Z,14.40
2018-10-17T17:09:50.717Z,14.10
2018-10-17T17:14:55.450Z,13.90
2018-10-17T17:19:59.946Z,13.70
2018-10-17T17:25:04.934Z,13.60
2018-10-17T17:30:14.928Z,13.50
2018-10-17T17:40:24.126Z,13.20
2018-10-17T17:45:28.212Z,13.00
2018-10-17T17:50:32.420Z,12.90
2018-10-17T17:55:37.332Z,12.70
2018-10-17T18:00:41.921Z,12.60
2018-10-17T18:05:46.386Z,12.50
2018-10-17T18:10:50.548Z,12.60
2018-10-17T18:15:54.819Z,12.60
2018-10-17T18:20:59.673Z,12.60
2018-10-17T18:26:04.376Z,12.60
2018-10-17T18:31:08.968Z,12.60
2018-10-17T18:36:13.091Z,12.50
2018-10-17T18:41:17.320Z,12.40
2018-10-17T18:46:22.866Z,12.20
2018-10-17T18:51:27.842Z,12.00
2018-10-17T18:56:32.101Z,11.90
2018-10-17T19:01:36.396Z,11.60
2018-10-17T19:06:40.780Z,11.50
2018-10-17T19:11:46.228Z,11.30
2018-10-17T19:16:51.125Z,11.20
2018-10-17T19:21:55.314Z,11.00
2018-10-17T19:26:59.755Z,10.90
2018-10-17T19:32:04.254Z,10.90
2018-10-17T19:37:08.644Z,10.80
2018-10-17T19:42:12.797Z,10.80
2018-10-17T19:47:17.070Z,10.90
2018-10-17T19:52:21.531Z,10.90
2018-10-17T19:57:25.758Z,10.90
2018-10-17T20:02:30.292Z,10.70
2018-10-17T20:07:34.518Z,10.50
2018-10-17T20:12:38.775Z,10.30
2018-10-17T20:17:42.845Z,10.20
2018-10-17T20:22:47.223Z,10.10
2018-10-17T20:27:51.520Z,10.10
2018-10-17T20:32:56.181Z,10.10
2018-10-17T20:38:00.641Z,10.00
2018-10-17T20:43:04.797Z,9.90
2018-10-17T20:48:08.959Z,9.70
2018-10-17T20:53:13.713Z,9.60
2018-10-17T20:58:18.052Z,9.50
2018-10-17T21:03:22.478Z,9.40
2018-10-17T21:08:26.625Z,9.40
2018-10-17T21:13:30.703Z,9.40
2018-10-17T21:18:35.165Z,9.40
2018-10-17T21:23:39.446Z,9.30
2018-10-17T21:28:43.714Z,9.30
2018-10-17T21:33:48.188Z,9.30
2018-10-17T21:38:52.515Z,9.30
2018-10-17T21:43:56.629Z,9.40
2018-10-17T21:49:01.064Z,9.40
2018-10-17T21:54:06.371Z,9.50
2018-10-17T21:59:10.922Z,9.50
2018-10-17T22:04:15.393Z,9.40
2018-10-17T22:09:19.473Z,9.40
2018-10-17T22:14:23.644Z,9.20
2018-10-17T22:19:28.533Z,9.10
2018-10-17T22:24:32.998Z,9.10
2018-10-17T22:29:37.624Z,9.10
2018-10-17T22:34:41.779Z,9.00
2018-10-17T22:39:45.991Z,9.00
2018-10-17T22:44:50.400Z,8.90
2018-10-17T22:49:54.928Z,8.80
2018-10-17T22:54:59.496Z,8.80
2018-10-17T23:00:03.698Z,8.70
2018-10-17T23:05:07.845Z,8.60
2018-10-17T23:10:12.656Z,8.60
2018-10-17T23:15:17.187Z,8.60
2018-10-17T23:20:21.714Z,8.60
2018-10-17T23:25:25.801Z,8.60
2018-10-17T23:30:29.884Z,8.70
2018-10-17T23:35:34.324Z,8.80
2018-10-17T23:40:38.814Z,8.70
2018-10-17T23:45:43.300Z,8.80
2018-10-17T23:50:47.834Z,8.80
2018-10-17T23:55:52.099Z,8.80
